Time;durP1;ratioP1;P1;durP2;ratioP2;P2;SDS_P1;SDS_P2;PMS_P1;PMS_P2;Temp;Humidity;BMP_temperature;BMP_pressure;BME280_temperature;BME280_humidity;BME280_pressure;Samples;Min_cycle;Max_cycle;Signal;HPM_P1;HPM_P2
2021/04/09 00:00:25;;;;;;;25.80;14.15;;;;;;;0.80;68.41;99960.86;1736833;82;21606;-66
2021/04/09 00:02:56;;;;;;;22.82;13.78;;;;;;;0.75;68.61;99959.67;1725741;81;21654;-66
2021/04/09 00:05:23;;;;;;;21.02;13.60;;;;;;;0.79;68.53;99968.26;1743662;81;21275;-66
2021/04/09 00:07:54;;;;;;;22.52;13.48;;;;;;;0.75;68.69;99964.88;1739374;81;21782;-66
2021/04/09 00:10:26;;;;;;;20.57;13.15;;;;;;;0.76;68.62;99967.05;1731443;82;21603;-66
2021/04/09 00:12:53;;;;;;;23.50;13.25;;;;;;;0.71;68.70;99963.72;1743060;81;22240;-65
2021/04/09 00:15:20;;;;;;;23.05;13.35;;;;;;;0.70;68.70;99968.05;1757447;81;21317;-66
2021/04/09 00:17:49;;;;;;;26.20;14.00;;;;;;;0.68;68.81;99978.09;1745712;82;21124;-66
2021/04/09 00:20:21;;;;;;;25.25;15.35;;;;;;;0.69;68.81;99975.91;1743940;81;21160;-66
2021/04/09 00:22:48;;;;;;;30.45;15.68;;;;;;;0.69;68.89;99980.69;1734643;81;21636;-66
2021/04/09 00:25:16;;;;;;;20.52;13.30;;;;;;;0.65;68.89;99976.00;1718018;81;21175;-66
2021/04/09 00:27:44;;;;;;;24.25;13.90;;;;;;;0.66;68.97;99987.25;1738237;81;21313;-66
2021/04/09 00:30:23;;;;;;;18.15;12.85;;;;;;;0.62;69.22;99982.56;1735946;82;21654;-65
2021/04/09 00:32:51;;;;;;;19.85;12.40;;;;;;;0.65;69.16;99988.14;1744534;81;21112;-65
2021/04/09 00:35:19;;;;;;;20.00;12.60;;;;;;;0.60;69.32;99997.81;1734956;81;21529;-66
2021/04/09 00:37:47;;;;;;;21.42;12.80;;;;;;;0.63;69.34;99993.85;1731822;81;21132;-66
2021/04/09 00:40:14;;;;;;;17.90;11.88;;;;;;;0.60;69.55;100000.42;1716069;83;21812;-66
2021/04/09 00:42:42;;;;;;;20.25;12.05;;;;;;;0.64;69.53;100011.19;1735773;82;21587;-66
2021/04/09 00:45:11;;;;;;;20.08;11.68;;;;;;;0.59;69.71;100009.11;1744587;82;21247;-66
2021/04/09 00:47:38;;;;;;;21.07;12.63;;;;;;;0.60;69.78;100006.50;1732276;81;21325;-66
2021/04/09 00:50:08;;;;;;;20.55;12.60;;;;;;;0.58;69.91;100011.33;1745472;81;21607;-66
2021/04/09 00:52:36;;;;;;;20.75;12.13;;;;;;;0.61;69.91;100012.55;1735364;82;21148;-65
2021/04/09 00:55:06;;;;;;;21.97;12.82;;;;;;;0.59;69.98;100015.19;1740365;81;21188;-65
2021/04/09 00:57:35;;;;;;;20.12;12.43;;;;;;;0.60;70.06;100013.43;1744616;82;21290;-65
2021/04/09 01:00:05;;;;;;;19.25;12.33;;;;;;;0.59;70.11;100016.92;1746956;81;21143;-66
2021/04/09 01:02:32;;;;;;;19.42;11.50;;;;;;;0.62;70.06;100008.59;1746443;81;21553;-65
2021/04/09 01:05:00;;;;;;;20.97;11.78;;;;;;;0.62;70.11;100015.56;1762424;81;21653;-65
2021/04/09 01:07:27;;;;;;;17.65;11.97;;;;;;;0.59;70.25;100013.02;1744347;81;21139;-65
2021/04/09 01:09:55;;;;;;;17.67;11.88;;;;;;;0.62;70.19;100015.56;1747292;81;21346;-65
2021/04/09 01:12:23;;;;;;;18.40;12.35;;;;;;;0.59;70.23;100026.03;1741756;82;21168;-66
2021/04/09 01:14:50;;;;;;;19.23;12.23;;;;;;;0.62;70.24;100023.37;1745168;82;21313;-65
2021/04/09 01:17:37;;;;;;;19.70;11.80;;;;;;;0.57;70.30;100022.63;1740780;81;21188;-65
2021/04/09 01:20:31;;;;;;;17.30;12.20;;;;;;;0.60;70.17;100029.92;1721221;82;21607;-65
2021/04/09 01:23:22;;;;;;;19.20;11.78;;;;;;;0.53;70.26;100021.84;1740574;81;21302;-66
2021/04/09 01:26:32;;;;;;;21.42;12.85;;;;;;;0.54;70.36;100029.19;1773866;79;23081;-65
2021/04/09 01:29:34;;;;;;;23.90;13.22;;;;;;;0.44;70.46;100023.37;1752509;80;21339;-65
2021/04/09 01:32:02;;;;;;;21.25;14.10;;;;;;;0.41;70.57;100024.73;1767950;80;21253;-65
2021/04/09 01:34:33;;;;;;;21.50;14.30;;;;;;;0.37;70.71;100034.39;1758795;80;21174;-65
2021/04/09 01:37:16;;;;;;;19.60;13.65;;;;;;;0.38;70.65;100042.58;1697466;84;21159;-65
2021/04/09 01:40:17;;;;;;;23.20;14.60;;;;;;;0.37;70.68;100037.41;1695241;82;21616;-65
2021/04/09 01:42:47;;;;;;;22.80;13.75;;;;;;;0.37;70.66;100038.29;1687020;84;21139;-66
2021/04/09 01:45:14;;;;;;;20.00;12.37;;;;;;;0.37;70.86;100038.72;1683974;82;21241;-65
2021/04/09 01:47:43;;;;;;;20.95;13.10;;;;;;;0.37;70.85;100038.29;1716885;82;21619;-65
2021/04/09 01:50:13;;;;;;;20.25;12.50;;;;;;;0.36;70.84;100044.37;1709823;82;21169;-65
2021/04/09 01:52:42;;;;;;;18.20;12.07;;;;;;;0.38;70.93;100048.24;1719036;82;21321;-67
2021/04/09 01:55:10;;;;;;;19.73;11.85;;;;;;;0.31;71.02;100057.94;1704422;82;21179;-65
2021/04/09 01:57:38;;;;;;;20.57;12.73;;;;;;;0.37;71.09;100060.83;1716080;82;21182;-65
2021/04/09 02:00:07;;;;;;;20.37;12.33;;;;;;;0.34;71.17;100060.46;1719367;82;21186;-65
2021/04/09 02:02:37;;;;;;;17.35;11.70;;;;;;;0.38;71.16;100073.80;1682444;84;21138;-65
2021/04/09 02:05:06;;;;;;;17.23;11.88;;;;;;;0.34;71.21;100078.67;1687473;84;21169;-65
2021/04/09 02:07:33;;;;;;;19.52;12.35;;;;;;;0.35;71.19;100076.48;1666548;82;21198;-65
2021/04/09 02:10:01;;;;;;;20.45;12.15;;;;;;;0.32;71.43;100079.17;1705901;82;21252;-65
2021/04/09 02:12:29;;;;;;;16.02;10.15;;;;;;;0.34;71.35;100086.94;1661346;84;21603;-65
2021/04/09 02:14:56;;;;;;;20.48;11.78;;;;;;;0.30;71.40;100092.65;1675466;82;21186;-65
2021/04/09 02:17:24;;;;;;;20.72;11.78;;;;;;;0.28;71.42;100087.48;1658429;85;21212;-65
2021/04/09 02:19:51;;;;;;;19.55;11.57;;;;;;;0.26;71.50;100087.11;1687331;84;21134;-65
2021/04/09 02:22:18;;;;;;;18.60;11.70;;;;;;;0.25;71.52;100090.59;1702020;84;21190;-65
2021/04/09 02:27:44;;;;;;;21.60;12.55;;;;;;;0.23;71.59;100080.66;1795944;78;23073;-66
2021/04/09 02:30:14;;;;;;;20.72;12.82;;;;;;;0.15;71.43;100086.91;1756036;80;21196;-65
2021/04/09 02:32:44;;;;;;;17.95;11.60;;;;;;;0.14;71.42;100083.89;1762993;79;21217;-65
2021/04/09 02:35:13;;;;;;;18.57;11.83;;;;;;;0.11;71.27;100093.50;1751512;80;21209;-66
2021/04/09 02:37:44;;;;;;;17.80;11.95;;;;;;;0.05;71.54;100095.80;1776674;79;21213;-66
2021/04/09 02:40:16;;;;;;;19.40;12.58;;;;;;;0.01;71.71;100095.89;1775825;80;21226;-65
2021/04/09 02:42:48;;;;;;;19.45;12.30;;;;;;;-0.06;71.90;100110.31;1768883;79;21153;-65
2021/04/09 02:45:18;;;;;;;19.75;12.30;;;;;;;-0.03;71.86;100113.29;1763130;81;21648;-66
2021/04/09 02:47:46;;;;;;;16.82;10.80;;;;;;;-0.05;71.96;100106.83;1712289;82;21218;-67
2021/04/09 02:50:33;;;;;;;21.15;12.82;;;;;;;0.02;71.84;100113.20;1708757;82;21703;-66
2021/04/09 02:53:18;;;;;;;19.80;11.22;;;;;;;-0.04;72.01;100111.15;1690285;83;21355;-66
2021/04/09 02:55:46;;;;;;;19.65;12.40;;;;;;;0.00;71.90;100115.84;1733110;81;21544;-65
2021/04/09 02:58:15;;;;;;;19.15;12.00;;;;;;;-0.06;72.02;100115.97;1714239;83;21210;-66
2021/04/09 03:00:44;;;;;;;20.62;12.68;;;;;;;-0.01;71.93;100125.37;1713555;82;21186;-66
2021/04/09 03:03:11;;;;;;;20.15;11.93;;;;;;;-0.05;72.08;100128.06;1701338;83;21232;-66
2021/04/09 03:05:40;;;;;;;23.00;13.13;;;;;;;-0.07;72.08;100129.39;1708067;82;21201;-65
2021/04/09 03:08:07;;;;;;;22.02;13.72;;;;;;;-0.11;72.28;100139.45;1713977;82;21704;-65
2021/04/09 03:10:34;;;;;;;20.60;12.75;;;;;;;-0.09;72.39;100140.71;1678078;84;21379;-66
2021/04/09 03:13:02;;;;;;;19.85;13.18;;;;;;;-0.08;72.69;100151.53;1711754;82;21218;-66
2021/04/09 03:15:42;;;;;;;21.07;12.75;;;;;;;-0.05;72.77;100149.73;1719415;82;21748;-66
2021/04/09 03:18:12;;;;;;;26.40;15.05;;;;;;;-0.05;72.85;100148.44;1707799;82;21236;-66
2021/04/09 03:20:40;;;;;;;37.05;19.12;;;;;;;-0.03;73.10;100148.39;1718980;82;21217;-67
2021/04/09 03:23:07;;;;;;;57.75;27.52;;;;;;;-0.03;73.10;100165.30;1722559;82;21210;-66
2021/04/09 03:25:36;;;;;;;51.73;27.55;;;;;;;-0.02;73.24;100160.52;1720980;82;21229;-67
2021/04/09 03:28:05;;;;;;;44.75;24.57;;;;;;;0.02;73.20;100169.96;1717647;82;21209;-66
2021/04/09 03:30:32;;;;;;;29.37;19.60;;;;;;;0.05;73.23;100164.72;1726912;82;21215;-66
2021/04/09 03:32:59;;;;;;;29.50;18.27;;;;;;;0.08;73.18;100175.04;1716601;82;21221;-66
2021/04/09 03:35:27;;;;;;;32.83;20.65;;;;;;;0.13;73.28;100171.91;1684766;84;21204;-66
2021/04/09 03:37:54;;;;;;;44.73;24.20;;;;;;;0.20;73.22;100184.78;1717962;82;21211;-66
2021/04/09 03:40:21;;;;;;;52.53;27.70;;;;;;;0.20;73.33;100181.73;1721410;82;21223;-67
2021/04/09 03:42:48;;;;;;;33.18;19.32;;;;;;;0.28;73.23;100195.88;1720004;83;21188;-66
2021/04/09 03:45:16;;;;;;;24.02;15.98;;;;;;;0.27;73.35;100193.73;1698023;82;21182;-68
2021/04/09 03:47:43;;;;;;;22.20;13.65;;;;;;;0.33;73.30;100196.63;1701912;83;21332;-66
2021/04/09 03:50:11;;;;;;;33.53;17.82;;;;;;;0.34;73.36;100206.16;1706314;82;21111;-66
2021/04/09 03:52:38;;;;;;;36.63;19.27;;;;;;;0.39;73.38;100198.27;1729643;81;21224;-66
2021/04/09 03:55:11;;;;;;;29.18;16.10;;;;;;;0.41;73.48;100204.28;1726353;81;21167;-66
2021/04/09 03:57:39;;;;;;;22.13;13.73;;;;;;;0.45;73.65;100205.95;1725892;81;21171;-66
2021/04/09 04:00:07;;;;;;;21.00;13.43;;;;;;;0.52;73.65;100201.47;1730019;81;21174;-67
2021/04/09 04:02:34;;;;;;;24.25;14.20;;;;;;;0.57;73.87;100211.33;1739498;81;21645;-67
2021/04/09 04:05:03;;;;;;;22.93;13.80;;;;;;;0.86;73.81;100210.67;1708052;82;21194;-66
2021/04/09 04:07:32;;;;;;;21.07;13.38;;;;;;;1.19;73.47;100218.59;1706110;82;21330;-66
2021/04/09 04:10:00;;;;;;;23.77;13.78;;;;;;;1.47;72.73;100222.67;1718739;82;21607;-65
2021/04/09 04:12:28;;;;;;;27.42;15.90;;;;;;;1.64;71.97;100226.61;1722296;82;21630;-66
2021/04/09 04:14:55;;;;;;;29.42;17.75;;;;;;;1.59;71.95;100221.50;1692648;82;21213;-66
2021/04/09 04:17:23;;;;;;;31.60;18.95;;;;;;;1.55;71.89;100230.73;1739074;81;21148;-66
2021/04/09 04:19:50;;;;;;;32.93;18.55;;;;;;;1.49;71.98;100233.05;1737927;81;21214;-66
2021/04/09 04:22:17;;;;;;;24.80;15.80;;;;;;;1.52;71.95;100233.42;1739095;81;21292;-65
2021/04/09 04:24:45;;;;;;;21.50;12.93;;;;;;;1.58;71.93;100237.19;1731655;81;21206;-66
2021/04/09 04:27:12;;;;;;;22.37;13.80;;;;;;;1.64;72.14;100250.07;1732470;81;21644;-66
2021/04/09 04:29:39;;;;;;;22.27;14.23;;;;;;;1.78;72.12;100251.02;1708422;82;21366;-66
2021/04/09 04:32:07;;;;;;;24.18;13.88;;;;;;;2.03;72.13;100247.29;1700364;82;21227;-66
2021/04/09 04:34:35;;;;;;;25.17;15.15;;;;;;;2.22;71.85;100250.25;1691498;82;21606;-66
2021/04/09 04:37:03;;;;;;;19.67;12.07;;;;;;;2.44;71.62;100247.91;1712863;83;21258;-65
2021/04/09 04:39:30;;;;;;;21.23;13.35;;;;;;;2.59;71.40;100248.36;1706405;83;21219;-65
2021/04/09 04:41:57;;;;;;;19.27;12.23;;;;;;;2.83;70.79;100246.77;1729431;82;21352;-67
2021/04/09 04:44:24;;;;;;;24.47;14.25;;;;;;;3.10;70.26;100262.50;1711434;82;21146;-66
2021/04/09 04:46:51;;;;;;;23.30;14.68;;;;;;;3.22;70.18;100254.72;1717787;82;21218;-67
2021/04/09 04:49:21;;;;;;;23.12;14.58;;;;;;;3.38;69.74;100255.94;1714908;82;21215;-66
2021/04/09 04:51:49;;;;;;;22.40;14.43;;;;;;;3.64;68.92;100262.06;1707675;82;21586;-65
2021/04/09 04:54:16;;;;;;;24.02;14.93;;;;;;;3.82;68.71;100267.59;1709442;84;21210;-66
2021/04/09 04:56:45;;;;;;;25.82;15.93;;;;;;;3.93;68.26;100266.31;1708647;82;21446;-65
2021/04/09 04:59:13;;;;;;;20.90;13.20;;;;;;;4.03;67.95;100268.16;1703152;83;21229;-66
2021/04/09 05:01:41;;;;;;;21.12;13.22;;;;;;;4.24;67.37;100269.62;1698516;83;21233;-66
2021/04/09 05:04:08;;;;;;;23.10;14.07;;;;;;;4.73;66.23;100276.12;1703846;83;21197;-67
2021/04/09 05:06:35;;;;;;;25.65;14.60;;;;;;;4.78;64.45;100274.64;1722657;82;22508;-67
2021/04/09 05:09:05;;;;;;;23.02;13.50;;;;;;;4.40;64.80;100279.94;1700712;82;21366;-67
2021/04/09 05:11:34;;;;;;;24.18;15.05;;;;;;;4.12;65.37;100281.39;1698845;83;21212;-67
2021/04/09 05:14:01;;;;;;;25.40;15.23;;;;;;;3.92;65.66;100282.91;1735044;81;21346;-67
2021/04/09 05:16:29;;;;;;;25.30;14.63;;;;;;;3.75;65.96;100287.42;1732548;81;21242;-64
2021/04/09 05:18:57;;;;;;;23.70;14.55;;;;;;;3.66;66.50;100289.03;1731494;81;21587;-65
2021/04/09 05:21:24;;;;;;;20.95;13.43;;;;;;;3.63;66.83;100295.66;1724117;81;21221;-65
2021/04/09 05:23:51;;;;;;;23.10;13.48;;;;;;;3.82;66.69;100297.68;1732558;82;21239;-65
2021/04/09 05:26:18;;;;;;;28.30;17.12;;;;;;;3.99;66.25;100297.97;1732648;81;21178;-66
2021/04/09 05:28:46;;;;;;;24.67;15.13;;;;;;;4.00;66.11;100297.04;1722153;82;21702;-65
2021/04/09 05:31:13;;;;;;;23.77;14.63;;;;;;;3.99;66.38;100297.97;1709973;83;21198;-65
2021/04/09 05:33:40;;;;;;;24.87;14.85;;;;;;;4.18;66.10;100313.02;1685561;83;21175;-65
2021/04/09 05:36:08;;;;;;;19.98;13.32;;;;;;;4.51;66.07;100299.64;1704260;82;21769;-65
2021/04/09 05:38:35;;;;;;;25.25;15.00;;;;;;;4.99;65.53;100310.52;1697220;82;21591;-65
2021/04/09 05:41:03;;;;;;;33.85;18.12;;;;;;;5.48;64.45;100310.83;1710872;82;21217;-65
2021/04/09 05:43:31;;;;;;;28.92;16.82;;;;;;;5.93;62.93;100307.21;1696749;82;21242;-65
2021/04/09 05:45:58;;;;;;;31.68;18.35;;;;;;;6.16;62.33;100309.36;1667668;83;21356;-65
2021/04/09 05:48:25;;;;;;;35.10;19.90;;;;;;;6.16;61.80;100317.23;1706129;82;21206;-65
2021/04/09 05:50:53;;;;;;;30.02;19.05;;;;;;;6.15;61.43;100312.89;1694892;83;21158;-65
2021/04/09 05:53:20;;;;;;;27.67;18.25;;;;;;;6.14;61.30;100313.81;1720288;83;21206;-66
2021/04/09 05:55:47;;;;;;;26.50;17.57;;;;;;;6.04;60.74;100318.63;1713783;83;22215;-66
2021/04/09 05:58:14;;;;;;;26.52;16.40;;;;;;;5.92;60.99;100319.97;1703799;83;21160;-66
2021/04/09 06:00:42;;;;;;;24.50;16.42;;;;;;;5.89;61.51;100320.92;1740958;81;21347;-65
2021/04/09 06:03:09;;;;;;;24.52;16.50;;;;;;;5.89;61.33;100325.33;1727206;83;21587;-66
2021/04/09 06:05:36;;;;;;;27.52;16.62;;;;;;;5.90;61.44;100327.05;1740119;81;21643;-65
2021/04/09 06:08:08;;;;;;;24.67;14.87;;;;;;;5.96;61.84;100330.73;1732361;81;21204;-65
2021/04/09 06:10:33;;;;;;;29.23;17.17;;;;;;;6.13;61.72;100331.83;1712378;82;21348;-66
2021/04/09 06:13:00;;;;;;;21.02;14.70;;;;;;;6.27;61.73;100333.39;1703507;82;21210;-66
2021/04/09 06:15:28;;;;;;;21.80;14.15;;;;;;;6.44;61.20;100336.59;1715274;83;21233;-66
2021/04/09 06:17:56;;;;;;;19.77;14.05;;;;;;;6.59;60.89;100333.75;1704181;82;21773;-65
2021/04/09 06:20:24;;;;;;;24.12;15.15;;;;;;;6.57;60.30;100319.81;1685432;84;21218;-65
2021/04/09 06:22:51;;;;;;;22.07;15.13;;;;;;;6.77;60.55;100337.80;1717993;82;21253;-65
2021/04/09 06:25:19;;;;;;;23.25;14.55;;;;;;;6.97;59.96;100328.55;1723679;82;21232;-66
2021/04/09 06:27:48;;;;;;;25.60;15.08;;;;;;;7.17;59.67;100326.75;1743687;81;21212;-65
2021/04/09 06:30:16;;;;;;;21.12;15.15;;;;;;;7.24;58.66;100332.57;1722922;83;21213;-66
2021/04/09 06:32:43;;;;;;;24.85;16.30;;;;;;;7.17;58.36;100334.64;1722483;81;21329;-66
2021/04/09 06:35:13;;;;;;;26.55;16.77;;;;;;;7.11;58.69;100341.50;1734345;81;21161;-65
2021/04/09 06:37:41;;;;;;;21.30;14.55;;;;;;;7.14;59.04;100341.38;1734785;81;21201;-65
2021/04/09 06:40:11;;;;;;;24.95;16.93;;;;;;;7.31;58.88;100345.36;1711411;82;21218;-65
2021/04/09 06:42:38;;;;;;;25.43;16.37;;;;;;;7.51;58.70;100350.16;1722458;81;21450;-65
2021/04/09 06:45:07;;;;;;;22.32;15.72;;;;;;;7.64;57.70;100347.78;1711232;82;21229;-66
2021/04/09 06:47:34;;;;;;;23.65;16.15;;;;;;;7.68;58.24;100340.96;1731302;82;21133;-66
2021/04/09 06:50:04;;;;;;;26.02;15.83;;;;;;;7.83;58.04;100345.11;1705014;83;21195;-66
2021/04/09 06:52:33;;;;;;;23.73;15.40;;;;;;;7.85;57.10;100347.18;1707550;83;21368;-66
2021/04/09 06:55:01;;;;;;;23.38;16.00;;;;;;;7.81;56.64;100350.90;1734755;81;21166;-66
2021/04/09 06:57:29;;;;;;;26.70;17.40;;;;;;;7.80;57.42;100354.45;1705887;83;21172;-66
2021/04/09 06:59:58;;;;;;;21.90;15.50;;;;;;;7.82;57.63;100353.92;1694846;82;21277;-65
2021/04/09 07:02:26;;;;;;;24.65;18.12;;;;;;;7.91;57.44;100354.78;1739603;81;22160;-66
2021/04/09 07:04:53;;;;;;;26.27;16.82;;;;;;;8.09;57.45;100355.64;1714186;82;21579;-65
2021/04/09 07:07:21;;;;;;;33.10;18.77;;;;;;;8.23;57.42;100356.27;1725578;82;21167;-66
2021/04/09 07:09:48;;;;;;;28.90;18.65;;;;;;;8.34;57.04;100353.94;1724540;82;21210;-65
2021/04/09 07:12:26;;;;;;;29.27;18.75;;;;;;;8.50;57.08;100356.68;1725572;82;21169;-65
2021/04/09 07:15:04;;;;;;;23.67;16.45;;;;;;;8.73;56.67;100359.03;1714355;82;21316;-67
2021/04/09 07:17:40;;;;;;;26.45;17.95;;;;;;;8.84;55.16;100360.63;1733408;81;21185;-65
2021/04/09 07:20:25;;;;;;;29.70;17.87;;;;;;;8.80;54.32;100360.42;1748057;81;21206;-65
2021/04/09 07:22:55;;;;;;;30.10;16.75;;;;;;;8.83;55.02;100353.65;1732909;82;21190;-66
2021/04/09 07:25:42;;;;;;;24.45;16.32;;;;;;;8.97;55.48;100358.19;1740814;81;21170;-66
2021/04/09 07:28:21;;;;;;;17.17;11.80;;;;;;;9.15;54.74;100367.73;1750667;81;21262;-64
2021/04/09 07:30:54;;;;;;;19.37;14.05;;;;;;;9.23;52.65;100369.94;1738806;81;21658;-64
2021/04/09 07:33:24;;;;;;;20.08;13.22;;;;;;;9.15;52.67;100368.20;1742707;81;21671;-64
2021/04/09 07:35:56;;;;;;;26.85;16.35;;;;;;;9.18;52.27;100358.34;1735714;81;21201;-64
2021/04/09 07:38:28;;;;;;;26.60;16.12;;;;;;;9.18;52.15;100367.58;1733235;81;21283;-63
2021/04/09 07:41:06;;;;;;;21.80;13.08;;;;;;;9.26;53.19;100356.59;1721771;81;21216;-64
2021/04/09 07:43:38;;;;;;;17.95;12.63;;;;;;;9.33;51.49;100360.61;1748170;81;21717;-65
2021/04/09 07:46:06;;;;;;;22.93;15.45;;;;;;;9.31;50.28;100376.12;1751178;81;21630;-65
2021/04/09 07:48:35;;;;;;;21.05;13.08;;;;;;;9.30;52.00;100373.96;1704631;82;21629;-65
2021/04/09 07:51:06;;;;;;;14.10;8.98;;;;;;;9.45;52.30;100372.72;1739289;81;21212;-66
2021/04/09 07:53:37;;;;;;;14.47;10.30;;;;;;;9.57;48.51;100377.33;1745084;81;21226;-66
2021/04/09 07:56:10;;;;;;;18.05;11.45;;;;;;;9.54;48.48;100371.36;1736350;81;21328;-65
2021/04/09 07:58:39;;;;;;;17.40;11.50;;;;;;;9.59;48.52;100371.50;1702594;82;21231;-65
2021/04/09 08:01:21;;;;;;;15.00;10.35;;;;;;;9.63;48.46;100374.34;1702089;83;21257;-65
2021/04/09 08:03:48;;;;;;;14.28;9.28;;;;;;;9.50;48.08;100370.67;1724853;81;21225;-65
2021/04/09 08:06:23;;;;;;;13.50;10.30;;;;;;;9.47;48.45;100374.81;1717450;82;21156;-64
2021/04/09 08:08:57;;;;;;;13.68;10.10;;;;;;;9.59;47.78;100371.50;1681762;83;21349;-64
2021/04/09 08:11:34;;;;;;;13.48;9.83;;;;;;;9.60;46.43;100369.70;1742987;81;21190;-64
2021/04/09 08:14:24;;;;;;;12.58;9.43;;;;;;;9.58;47.63;100368.92;1694926;84;21355;-65
2021/04/09 08:16:54;;;;;;;12.47;8.50;;;;;;;9.62;48.10;100365.19;1705128;83;21192;-64
2021/04/09 08:19:26;;;;;;;15.65;9.15;;;;;;;9.69;45.96;100363.89;1713057;82;21210;-64
2021/04/09 08:21:56;;;;;;;12.68;8.18;;;;;;;9.67;43.80;100369.27;1714936;82;21773;-64
2021/04/09 08:24:28;;;;;;;11.12;7.72;;;;;;;9.60;43.06;100365.25;1726505;82;21194;-65
2021/04/09 08:26:55;;;;;;;10.25;7.10;;;;;;;9.55;43.70;100375.23;1697376;83;21230;-64
2021/04/09 08:29:23;;;;;;;11.70;8.60;;;;;;;9.61;44.73;100372.73;1692058;83;21138;-64
2021/04/09 08:31:51;;;;;;;11.97;8.40;;;;;;;9.72;45.44;100369.46;1690779;83;21206;-64
2021/04/09 08:34:20;;;;;;;13.18;8.05;;;;;;;9.98;45.41;100368.81;1707218;81;21210;-64
2021/04/09 08:36:51;;;;;;;10.40;7.92;;;;;;;10.10;44.11;100370.38;1702686;83;21204;-65
2021/04/09 08:39:20;;;;;;;13.75;8.85;;;;;;;10.14;43.83;100371.89;1700448;83;21207;-65
2021/04/09 08:41:51;;;;;;;11.97;8.15;;;;;;;10.12;42.98;100375.11;1700059;83;21241;-64
2021/04/09 08:44:20;;;;;;;11.38;7.03;;;;;;;9.98;42.98;100364.86;1700790;83;21196;-65
2021/04/09 08:46:47;;;;;;;10.40;7.40;;;;;;;9.83;42.19;100371.03;1700772;83;21190;-67
2021/04/09 08:49:16;;;;;;;8.83;6.75;;;;;;;9.83;42.04;100372.34;1720766;82;21176;-67
2021/04/09 08:51:44;;;;;;;7.87;6.12;;;;;;;9.92;43.22;100362.56;1721621;83;21186;-67
2021/04/09 08:54:28;;;;;;;8.13;6.15;;;;;;;10.14;42.16;100366.60;1719697;81;21287;-66
2021/04/09 08:56:53;;;;;;;8.70;6.12;;;;;;;10.39;41.14;100363.88;1718587;81;21163;-67
2021/04/09 08:59:44;;;;;;;9.78;6.58;;;;;;;10.49;40.46;100363.70;1731212;81;21209;-66
2021/04/09 09:02:27;;;;;;;9.18;6.25;;;;;;;10.43;37.30;100365.39;1736867;81;21693;-66
2021/04/09 09:05:04;;;;;;;10.03;7.72;;;;;;;10.20;39.90;100360.12;1728269;81;21167;-67
2021/04/09 09:07:55;;;;;;;10.88;7.10;;;;;;;10.17;42.62;100373.05;1727800;81;21201;-66
2021/04/09 09:10:36;;;;;;;10.40;6.67;;;;;;;10.17;43.06;100372.56;1752860;81;21237;-65
2021/04/09 09:13:17;;;;;;;10.45;7.45;;;;;;;10.07;41.48;100370.56;1724238;81;21174;-64
2021/04/09 09:15:59;;;;;;;13.28;7.53;;;;;;;9.68;43.58;100370.97;1713123;82;21210;-65
2021/04/09 09:18:34;;;;;;;11.90;7.03;;;;;;;9.58;43.62;100369.79;1749313;81;21344;-66
2021/04/09 09:21:17;;;;;;;;;;;;;;;9.65;42.88;100375.12;1714611;81;21833;-64
2021/04/09 09:23:57;;;;;;;7.87;5.75;;;;;;;9.78;42.11;100379.23;1705673;83;20128;-65
2021/04/09 09:26:39;;;;;;;13.30;6.92;;;;;;;9.95;40.08;100374.30;1711979;82;21202;-64
2021/04/09 09:29:24;;;;;;;7.67;4.37;;;;;;;10.00;38.88;100371.40;1727944;81;21194;-64
2021/04/09 09:32:07;;;;;;;7.17;5.20;;;;;;;10.13;38.29;100375.49;1718936;83;21190;-65
2021/04/09 09:34:41;;;;;;;5.42;3.92;;;;;;;10.22;37.28;100372.30;1703283;82;21194;-65
2021/04/09 09:37:30;;;;;;;5.33;3.98;;;;;;;10.29;35.53;100371.02;1702017;82;21309;-65
2021/04/09 09:40:05;;;;;;;5.92;3.87;;;;;;;10.45;36.33;100360.88;1718836;81;21169;-65
2021/04/09 09:42:38;;;;;;;6.03;3.85;;;;;;;10.63;36.32;100371.64;1730348;81;21197;-65
2021/04/09 09:45:11;;;;;;;31.97;14.97;;;;;;;10.71;36.26;100379.11;1737169;81;21158;-65
2021/04/09 09:47:45;;;;;;;5.83;4.55;;;;;;;10.76;35.75;100368.27;1724147;81;21450;-66
2021/04/09 09:52:22;;;;;;;8.70;5.00;;;;;;;10.54;34.92;100368.69;1793710;78;22940;-65
2021/04/09 09:55:14;;;;;;;10.10;7.08;;;;;;;10.39;36.18;100377.09;1762808;80;21149;-66
2021/04/09 09:57:48;;;;;;;9.70;6.58;;;;;;;10.21;38.83;100377.69;1751792;80;21284;-65
2021/04/09 10:00:25;;;;;;;;;;;;;;;9.98;40.81;100382.03;1788992;80;21313;-65
2021/04/09 10:03:12;;;;;;;10.65;7.10;;;;;;;9.93;42.25;100387.22;1782934;79;20163;-64
2021/04/09 10:05:43;;;;;;;9.90;6.37;;;;;;;9.97;42.68;100383.00;1773804;80;21305;-65
2021/04/09 10:08:11;;;;;;;10.43;6.90;;;;;;;10.11;42.32;100382.65;1772231;79;21093;-65
2021/04/09 10:10:54;;;;;;;9.48;6.62;;;;;;;10.28;42.39;100377.23;1731397;81;21107;-65
2021/04/09 10:13:29;;;;;;;10.58;6.55;;;;;;;10.47;42.00;100379.67;1720498;82;21324;-65
2021/04/09 10:16:19;;;;;;;8.73;6.58;;;;;;;10.68;41.00;100377.12;1728219;82;21326;-65
2021/04/09 10:18:49;;;;;;;8.90;5.87;;;;;;;10.72;41.10;100383.95;1693287;83;21285;-65
2021/04/09 10:21:27;;;;;;;8.68;5.58;;;;;;;10.85;39.41;100370.33;1711260;84;21194;-65
2021/04/09 10:24:10;;;;;;;7.85;5.22;;;;;;;10.84;38.53;100382.34;1711629;84;21155;-65
2021/04/09 10:27:01;;;;;;;8.65;5.33;;;;;;;10.73;36.48;100370.62;1704743;84;21206;-64
2021/04/09 10:29:34;;;;;;;8.75;6.10;;;;;;;10.64;36.40;100378.64;1712434;84;21206;-64
2021/04/09 10:32:04;;;;;;;7.62;5.20;;;;;;;10.65;36.10;100375.06;1688950;84;21205;-66
2021/04/09 10:34:35;;;;;;;8.95;5.47;;;;;;;10.67;35.80;100366.19;1705134;84;21175;-66
2021/04/09 10:37:06;;;;;;;6.83;5.10;;;;;;;10.69;36.30;100373.53;1704826;84;21193;-66
2021/04/09 10:39:38;;;;;;;8.03;5.30;;;;;;;10.75;36.28;100361.27;1726417;83;21143;-64
2021/04/09 10:42:06;;;;;;;9.78;5.72;;;;;;;10.75;36.52;100369.20;1723471;82;21150;-64
2021/04/09 10:44:33;;;;;;;8.15;5.55;;;;;;;10.77;37.20;100363.36;1706890;83;21628;-65
2021/04/09 10:47:04;;;;;;;7.47;5.00;;;;;;;10.80;37.49;100361.83;1711984;82;21178;-65
2021/04/09 10:49:36;;;;;;;9.88;5.67;;;;;;;10.80;37.41;100363.16;1670727;84;21324;-66
2021/04/09 10:52:12;;;;;;;6.40;5.08;;;;;;;10.82;37.51;100365.24;1674708;84;21190;-65
2021/04/09 10:54:44;;;;;;;7.15;4.83;;;;;;;10.84;36.99;100364.66;1696857;84;21151;-65
2021/04/09 10:57:15;;;;;;;7.97;5.40;;;;;;;10.93;37.56;100362.79;1696903;84;21202;-65
2021/04/09 10:59:46;;;;;;;10.23;6.22;;;;;;;11.10;35.89;100350.27;1694964;84;21215;-66
2021/04/09 11:02:22;;;;;;;9.65;6.40;;;;;;;11.20;37.24;100352.73;1697411;84;21193;-66
2021/04/09 11:04:54;;;;;;;8.25;6.03;;;;;;;11.41;37.76;100343.05;1682203;84;21229;-66
2021/04/09 11:07:48;;;;;;;8.58;5.62;;;;;;;11.62;37.85;100348.73;1691500;84;22155;-66
2021/04/09 11:10:36;;;;;;;8.08;5.80;;;;;;;11.72;36.50;100354.30;1723798;82;21355;-65
2021/04/09 11:13:05;;;;;;;8.90;5.70;;;;;;;11.59;35.82;100352.92;1746398;81;21196;-66
2021/04/09 11:15:54;;;;;;;10.85;5.90;;;;;;;11.41;35.58;100358.94;1742917;81;21153;-66
2021/04/09 11:18:23;;;;;;;9.43;5.62;;;;;;;11.29;36.43;100356.12;1688380;83;21326;-66
2021/04/09 11:20:50;;;;;;;10.58;6.17;;;;;;;11.24;36.44;100352.91;1698038;84;21180;-65
2021/04/09 11:23:18;;;;;;;9.45;6.20;;;;;;;11.21;36.92;100358.39;1668750;84;21193;-65
2021/04/09 11:25:49;;;;;;;10.58;7.87;;;;;;;11.15;36.76;100353.02;1676978;84;21617;-66
2021/04/09 11:28:28;;;;;;;9.75;6.90;;;;;;;10.98;36.83;100359.38;1675951;84;21774;-64
2021/04/09 11:31:01;;;;;;;9.28;5.85;;;;;;;10.84;37.13;100355.39;1679548;84;21182;-65
2021/04/09 11:33:34;;;;;;;8.63;5.67;;;;;;;10.71;37.61;100357.95;1678897;84;21198;-64
2021/04/09 11:36:22;;;;;;;6.83;4.85;;;;;;;10.68;36.71;100364.77;1668386;85;21629;-65
2021/04/09 11:38:54;;;;;;;6.85;5.30;;;;;;;10.58;36.87;100358.33;1678048;84;21165;-65
2021/04/09 11:41:30;;;;;;;8.20;4.80;;;;;;;10.50;37.09;100357.48;1685749;85;21174;-65
2021/04/09 11:43:59;;;;;;;6.12;4.70;;;;;;;10.45;36.56;100348.97;1685306;84;21602;-65